createdAt,value
2022-12-25T00:01:32.570Z,16.10
2022-12-25T00:03:59.856Z,18.45
2022-12-25T00:06:27.659Z,16.95
2022-12-25T00:08:54.989Z,16.98
2022-12-25T00:11:22.568Z,19.42
2022-12-25T00:13:52.108Z,19.60
2022-12-25T00:16:25.597Z,28.48
2022-12-25T00:18:54.242Z,100.28
2022-12-25T00:21:22.317Z,139.43
2022-12-25T00:23:54.854Z,177.02
2022-12-25T00:26:22.608Z,210.43
2022-12-25T00:29:01.304Z,113.80
2022-12-25T00:31:28.944Z,117.38
2022-12-25T00:33:57.528Z,91.60
2022-12-25T00:36:24.944Z,83.28
2022-12-25T00:38:52.680Z,71.00
2022-12-25T00:41:50.053Z,105.75
2022-12-25T00:44:17.495Z,114.47
2022-12-25T00:46:45.791Z,103.97
2022-12-25T00:49:13.961Z,88.50
2022-12-25T00:51:41.585Z,100.28
2022-12-25T00:54:09.532Z,103.60
2022-12-25T00:56:36.825Z,76.00
2022-12-25T00:59:04.485Z,69.93
2022-12-25T01:01:33.201Z,64.47
2022-12-25T01:04:01.099Z,54.10
2022-12-25T01:06:29.095Z,36.97
2022-12-25T01:09:15.377Z,38.08
2022-12-25T01:11:42.625Z,31.92
2022-12-25T01:14:10.844Z,38.05
2022-12-25T01:16:38.716Z,31.80
2022-12-25T01:19:06.172Z,31.30
2022-12-25T01:21:33.745Z,37.15
2022-12-25T01:24:01.035Z,28.13
2022-12-25T01:26:29.082Z,26.02
2022-12-25T01:28:56.694Z,45.72
2022-12-25T01:31:25.197Z,42.60
2022-12-25T01:33:53.315Z,36.45
2022-12-25T01:36:23.543Z,33.13
2022-12-25T01:38:51.864Z,26.05
2022-12-25T01:41:21.269Z,27.67
2022-12-25T01:44:12.840Z,18.27
2022-12-25T01:46:40.601Z,19.70
2022-12-25T01:49:16.341Z,19.00
2022-12-25T01:51:57.243Z,16.77
2022-12-25T01:54:30.135Z,15.98
2022-12-25T01:57:01.417Z,20.90
2022-12-25T01:59:30.129Z,16.60
2022-12-25T02:01:58.525Z,21.58
2022-12-25T02:04:39.316Z,23.63
2022-12-25T02:07:23.316Z,19.55
2022-12-25T02:09:51.757Z,19.65
2022-12-25T02:12:23.605Z,20.27
2022-12-25T02:14:55.386Z,17.08
2022-12-25T02:18:06.612Z,14.15
2022-12-25T02:20:41.992Z,17.88
2022-12-25T02:23:39.864Z,13.20
2022-12-25T02:26:33.839Z,12.40
2022-12-25T02:32:02.871Z,13.88
2022-12-25T02:34:44.878Z,11.57
2022-12-25T02:37:18.351Z,18.58
2022-12-25T02:40:04.831Z,10.20
2022-12-25T02:43:22.739Z,14.23
2022-12-25T02:46:18.800Z,16.20
2022-12-25T02:49:26.583Z,14.05
2022-12-25T02:52:18.800Z,11.82
2022-12-25T02:55:12.614Z,12.00
2022-12-25T02:58:07.630Z,15.10
2022-12-25T03:00:58.362Z,11.88
2022-12-25T03:03:49.826Z,9.90
2022-12-25T03:06:39.114Z,12.60
2022-12-25T03:09:28.542Z,13.48
2022-12-25T03:12:09.051Z,10.65
2022-12-25T03:14:58.165Z,11.95
2022-12-25T03:17:25.852Z,12.30
2022-12-25T03:20:11.993Z,13.57
2022-12-25T03:23:01.170Z,10.13
2022-12-25T03:25:48.474Z,9.25
2022-12-25T03:28:15.799Z,11.30
2022-12-25T03:31:18.739Z,12.48
2022-12-25T03:34:11.785Z,12.02
2022-12-25T03:37:15.863Z,18.75
2022-12-25T03:39:55.743Z,15.98
2022-12-25T03:42:50.278Z,18.67
2022-12-25T03:45:53.883Z,17.00
2022-12-25T03:48:42.883Z,11.35
2022-12-25T03:51:33.639Z,12.07
2022-12-25T03:54:24.054Z,11.00
2022-12-25T03:57:10.737Z,11.50
2022-12-25T03:59:56.679Z,13.25
2022-12-25T04:02:42.748Z,9.88
2022-12-25T04:05:28.772Z,10.70
2022-12-25T04:08:14.859Z,16.15
2022-12-25T04:11:00.522Z,18.20
2022-12-25T04:13:46.492Z,18.02
2022-12-25T04:16:32.426Z,13.00
2022-12-25T04:19:31.970Z,9.70
2022-12-25T04:22:18.017Z,19.33
2022-12-25T04:25:03.981Z,24.15
2022-12-25T04:27:49.997Z,25.35
2022-12-25T04:30:36.922Z,18.25
2022-12-25T04:33:22.765Z,15.98
2022-12-25T04:36:09.325Z,13.55
2022-12-25T04:38:38.234Z,14.30
2022-12-25T04:41:06.655Z,11.05
2022-12-25T04:43:33.854Z,10.95
2022-12-25T04:46:04.880Z,11.98
2022-12-25T04:48:34.780Z,10.93
2022-12-25T04:51:20.895Z,9.35
2022-12-25T04:53:49.694Z,9.57
2022-12-25T04:56:17.382Z,9.10
2022-12-25T04:58:45.229Z,10.82
2022-12-25T05:01:13.686Z,8.60
2022-12-25T05:03:41.733Z,9.40
2022-12-25T05:06:10.915Z,8.88
2022-12-25T05:08:38.042Z,9.20
2022-12-25T05:11:10.473Z,8.43
2022-12-25T05:13:38.956Z,10.47
2022-12-25T05:16:12.957Z,7.30
2022-12-25T05:18:40.567Z,8.52
2022-12-25T05:21:08.309Z,7.05
2022-12-25T05:23:36.075Z,8.98
2022-12-25T05:26:07.487Z,7.25
2022-12-25T05:28:36.889Z,10.35
2022-12-25T05:31:04.523Z,9.38
2022-12-25T05:33:32.371Z,8.15
2022-12-25T05:36:04.414Z,7.60
2022-12-25T05:38:32.296Z,6.95
2022-12-25T05:40:59.765Z,7.78
2022-12-25T05:43:28.352Z,7.72
2022-12-25T05:46:07.970Z,6.88
2022-12-25T05:48:38.512Z,7.18
2022-12-25T05:51:14.443Z,7.65
2022-12-25T05:53:43.508Z,8.02
2022-12-25T05:56:11.525Z,6.95
2022-12-25T05:58:40.065Z,7.10
2022-12-25T06:01:15.716Z,6.50
2022-12-25T06:03:43.164Z,7.20
2022-12-25T06:06:11.210Z,8.30
2022-12-25T06:08:38.682Z,6.78
2022-12-25T06:11:07.632Z,8.95
2022-12-25T06:13:36.010Z,9.43
2022-12-25T06:16:08.531Z,9.35
2022-12-25T06:18:42.441Z,9.77
2022-12-25T06:21:11.573Z,8.85
2022-12-25T06:23:39.786Z,8.98
2022-12-25T06:26:09.616Z,6.70
2022-12-25T06:28:37.604Z,8.60
2022-12-25T06:31:18.222Z,7.60
2022-12-25T06:33:46.105Z,5.63
2022-12-25T06:36:17.074Z,10.77
2022-12-25T06:38:44.354Z,9.77
2022-12-25T06:41:17.372Z,9.32
2022-12-25T06:43:48.947Z,10.65
2022-12-25T06:46:16.703Z,8.80
2022-12-25T06:48:51.060Z,8.23
2022-12-25T06:51:30.514Z,8.48
2022-12-25T06:53:58.902Z,12.57
2022-12-25T06:56:29.532Z,9.20
2022-12-25T06:59:02.665Z,10.75
2022-12-25T07:01:33.539Z,8.80
2022-12-25T07:04:04.703Z,13.15
2022-12-25T07:09:35.081Z,12.27
2022-12-25T07:12:21.049Z,9.95
2022-12-25T07:14:51.313Z,8.45
2022-12-25T07:17:21.492Z,11.25
2022-12-25T07:19:50.230Z,7.45
2022-12-25T07:22:18.556Z,9.82
2022-12-25T07:24:47.295Z,7.90
2022-12-25T07:27:19.554Z,9.70
2022-12-25T07:29:48.067Z,11.73
2022-12-25T07:32:49.872Z,7.90
2022-12-25T07:35:18.881Z,17.38
2022-12-25T07:37:47.357Z,21.63
2022-12-25T07:40:15.991Z,19.85
2022-12-25T07:42:45.411Z,18.52
2022-12-25T07:45:13.218Z,22.33
2022-12-25T07:47:40.949Z,21.95
2022-12-25T07:50:08.664Z,23.58
2022-12-25T07:52:43.092Z,18.60
2022-12-25T07:55:12.035Z,19.38
2022-12-25T07:57:40.931Z,15.25
2022-12-25T08:00:10.043Z,15.35
2022-12-25T08:02:40.839Z,24.92
2022-12-25T08:05:08.930Z,18.00
2022-12-25T08:07:36.508Z,15.23
2022-12-25T08:10:04.444Z,45.80
2022-12-25T08:12:31.788Z,74.57
2022-12-25T08:14:59.138Z,82.85
2022-12-25T08:17:26.518Z,120.03
2022-12-25T08:19:53.869Z,121.07
2022-12-25T08:22:21.141Z,116.78
2022-12-25T08:24:48.642Z,117.22
2022-12-25T08:27:16.035Z,123.38
2022-12-25T08:29:45.090Z,111.88
2022-12-25T08:32:12.384Z,95.43
2022-12-25T08:34:40.083Z,88.32
2022-12-25T08:37:07.402Z,68.28
2022-12-25T08:39:34.539Z,72.22
2022-12-25T08:42:08.225Z,58.47
2022-12-25T08:44:35.672Z,74.00
2022-12-25T08:47:03.017Z,68.88
2022-12-25T08:49:30.367Z,61.42
2022-12-25T08:51:58.045Z,64.32
2022-12-25T08:54:25.528Z,88.82
2022-12-25T08:56:57.277Z,131.63
2022-12-25T08:59:29.489Z,95.13
2022-12-25T09:01:56.823Z,42.10
2022-12-25T09:04:26.739Z,33.33
2022-12-25T09:06:54.063Z,39.30
2022-12-25T09:09:21.523Z,47.00
2022-12-25T09:11:49.522Z,58.53
2022-12-25T09:14:16.706Z,57.90
2022-12-25T09:16:44.281Z,47.05
2022-12-25T09:19:12.062Z,41.38
2022-12-25T09:21:39.282Z,30.38
2022-12-25T09:24:06.857Z,33.38
2022-12-25T09:26:34.272Z,47.22
2022-12-25T09:29:01.544Z,62.05
2022-12-25T09:31:29.266Z,75.57
2022-12-25T09:33:58.397Z,68.10
2022-12-25T09:36:26.177Z,62.70
2022-12-25T09:38:54.123Z,75.82
2022-12-25T09:41:46.285Z,59.58
2022-12-25T09:44:24.312Z,47.28
2022-12-25T09:46:56.313Z,37.95
2022-12-25T09:49:32.062Z,28.02
2022-12-25T09:52:06.299Z,34.08
2022-12-25T09:55:00.799Z,38.35
2022-12-25T09:57:28.394Z,42.28
2022-12-25T09:59:56.426Z,40.17
2022-12-25T10:02:36.741Z,23.30
2022-12-25T10:05:29.583Z,20.98
2022-12-25T10:08:25.357Z,19.40
2022-12-25T10:11:11.902Z,13.45
2022-12-25T10:13:42.355Z,15.90
2022-12-25T10:16:34.649Z,22.55
2022-12-25T10:19:11.802Z,31.98
2022-12-25T10:21:39.508Z,36.92
2022-12-25T10:24:32.585Z,38.78
2022-12-25T10:27:05.500Z,56.70
2022-12-25T10:29:35.177Z,39.53
2022-12-25T10:32:02.834Z,40.20
2022-12-25T10:34:30.723Z,33.60
2022-12-25T10:36:59.798Z,14.90
2022-12-25T10:39:27.220Z,12.43
2022-12-25T10:42:06.353Z,35.25
2022-12-25T10:44:39.355Z,32.45
2022-12-25T10:47:09.022Z,22.95
2022-12-25T10:49:39.867Z,31.98
2022-12-25T10:52:23.280Z,21.95
2022-12-25T10:57:25.543Z,31.75
2022-12-25T10:59:57.060Z,113.78
2022-12-25T11:02:31.053Z,118.70
2022-12-25T11:05:08.104Z,83.22
2022-12-25T11:07:51.781Z,26.02
2022-12-25T11:13:30.924Z,42.65
2022-12-25T11:16:03.165Z,57.90
2022-12-25T11:18:45.065Z,33.63
2022-12-25T11:21:23.508Z,50.50
2022-12-25T11:24:18.303Z,47.25
2022-12-25T11:26:55.711Z,18.42
2022-12-25T11:29:25.399Z,24.63
2022-12-25T11:31:56.235Z,16.92
2022-12-25T11:34:38.713Z,21.73
2022-12-25T11:37:13.523Z,35.38
2022-12-25T11:39:42.278Z,15.65
2022-12-25T11:42:50.345Z,22.70
2022-12-25T11:45:21.248Z,14.57
2022-12-25T11:48:00.532Z,16.98
2022-12-25T11:50:32.804Z,8.70
2022-12-25T11:53:07.382Z,10.40
2022-12-25T11:55:43.126Z,25.92
2022-12-25T11:58:36.855Z,21.35
2022-12-25T12:01:16.032Z,13.65
2022-12-25T12:03:44.895Z,9.55
2022-12-25T12:06:26.160Z,8.23
2022-12-25T12:09:03.244Z,9.38
2022-12-25T12:11:48.268Z,7.03
2022-12-25T12:14:35.556Z,8.90
2022-12-25T12:17:13.377Z,9.43
2022-12-25T12:19:42.846Z,7.13
2022-12-25T12:22:23.966Z,7.07
2022-12-25T12:24:59.072Z,8.20
2022-12-25T12:27:39.669Z,7.28
2022-12-25T12:30:21.869Z,5.30
2022-12-25T12:32:53.798Z,7.47
2022-12-25T12:35:27.226Z,6.47
2022-12-25T12:38:01.176Z,8.05
2022-12-25T12:40:50.565Z,8.73
2022-12-25T12:43:39.471Z,7.00
2022-12-25T12:46:36.400Z,7.97
2022-12-25T12:49:11.220Z,8.60
2022-12-25T12:51:39.267Z,8.13
2022-12-25T12:54:21.258Z,5.68
2022-12-25T12:57:06.365Z,5.30
2022-12-25T12:59:46.480Z,7.90
2022-12-25T13:02:51.218Z,7.35
2022-12-25T13:05:50.892Z,10.40
2022-12-25T13:08:55.669Z,6.20
2022-12-25T13:11:31.981Z,7.80
2022-12-25T13:14:02.956Z,5.60
2022-12-25T13:16:38.024Z,6.05
2022-12-25T13:19:08.547Z,7.35
2022-12-25T13:21:36.525Z,8.60
2022-12-25T13:24:10.877Z,6.55
2022-12-25T13:26:39.952Z,4.88
2022-12-25T13:29:11.447Z,7.50
2022-12-25T13:31:41.146Z,4.85
2022-12-25T13:34:17.668Z,7.55
2022-12-25T13:36:44.965Z,7.47
2022-12-25T13:39:17.260Z,7.85
2022-12-25T13:42:05.864Z,7.38
2022-12-25T13:44:53.193Z,4.90
2022-12-25T13:47:32.951Z,6.38
2022-12-25T13:50:13.620Z,6.97
2022-12-25T13:52:41.088Z,7.47
2022-12-25T13:55:19.382Z,9.50
2022-12-25T13:57:48.312Z,11.43
2022-12-25T14:00:30.508Z,7.88
2022-12-25T14:02:59.292Z,6.53
2022-12-25T14:05:39.773Z,7.43
2022-12-25T14:08:21.093Z,11.05
2022-12-25T14:10:51.450Z,9.10
2022-12-25T14:13:21.428Z,6.55
2022-12-25T14:15:49.969Z,7.63
2022-12-25T14:18:19.232Z,10.80
2022-12-25T14:21:02.695Z,8.00
2022-12-25T14:26:19.820Z,8.98
2022-12-25T14:28:53.950Z,7.55
2022-12-25T14:31:22.284Z,5.70
2022-12-25T14:33:51.883Z,7.28
2022-12-25T14:36:19.690Z,10.43
2022-12-25T14:38:57.565Z,8.85
2022-12-25T14:41:38.471Z,8.73
2022-12-25T14:44:30.612Z,9.88
2022-12-25T14:47:18.939Z,7.97
2022-12-25T14:49:48.017Z,8.90
2022-12-25T14:52:30.666Z,7.80
2022-12-25T14:55:05.661Z,8.52
2022-12-25T14:57:38.085Z,9.43
2022-12-25T15:00:12.951Z,9.33
2022-12-25T15:02:46.224Z,8.15
2022-12-25T15:05:30.308Z,8.80
2022-12-25T15:08:09.498Z,9.65
2022-12-25T15:13:26.858Z,8.63
2022-12-25T15:16:09.325Z,7.47
2022-12-25T15:18:45.604Z,7.88
2022-12-25T15:21:19.389Z,7.40
2022-12-25T15:23:47.146Z,11.07
2022-12-25T15:26:15.568Z,7.53
2022-12-25T15:28:43.421Z,8.77
2022-12-25T15:31:39.356Z,7.63
2022-12-25T15:34:20.806Z,8.07
2022-12-25T15:36:54.505Z,9.63
2022-12-25T15:39:22.233Z,7.68
2022-12-25T15:42:08.828Z,6.60
2022-12-25T15:44:36.291Z,9.77
2022-12-25T15:47:04.004Z,9.70
2022-12-25T15:49:31.405Z,7.82
2022-12-25T15:51:58.927Z,8.85
2022-12-25T15:54:26.197Z,8.05
2022-12-25T15:56:56.621Z,9.45
2022-12-25T15:59:24.474Z,9.30
2022-12-25T16:01:57.350Z,8.75
2022-12-25T16:04:26.209Z,8.55
2022-12-25T16:06:54.988Z,9.18
2022-12-25T16:09:22.918Z,9.05
2022-12-25T16:11:54.203Z,9.57
2022-12-25T16:14:22.733Z,10.50
2022-12-25T16:16:50.332Z,7.57
2022-12-25T16:19:17.812Z,8.98
2022-12-25T16:21:47.003Z,8.90
2022-12-25T16:24:15.603Z,8.23
2022-12-25T16:26:43.668Z,8.73
2022-12-25T16:29:17.396Z,8.32
2022-12-25T16:31:45.365Z,9.65
2022-12-25T16:34:13.886Z,62.72
2022-12-25T16:36:41.679Z,98.57
2022-12-25T16:39:09.249Z,160.30
2022-12-25T16:41:36.683Z,156.98
2022-12-25T16:44:16.345Z,149.70
2022-12-25T16:46:44.187Z,232.48
2022-12-25T16:49:15.468Z,223.55
2022-12-25T16:51:43.151Z,226.25
2022-12-25T16:54:10.562Z,239.32
2022-12-25T16:56:38.650Z,249.75
2022-12-25T16:59:06.031Z,212.18
2022-12-25T17:01:33.791Z,174.77
2022-12-25T17:04:02.016Z,134.07
2022-12-25T17:06:29.651Z,68.07
2022-12-25T17:09:00.535Z,52.45
2022-12-25T17:11:32.464Z,52.60
2022-12-25T17:14:02.832Z,50.47
2022-12-25T17:16:36.088Z,30.73
2022-12-25T17:19:10.147Z,29.00
2022-12-25T17:21:38.777Z,23.52
2022-12-25T17:24:07.398Z,23.67
2022-12-25T17:26:36.013Z,26.23
2022-12-25T17:29:04.481Z,22.15
2022-12-25T17:31:32.501Z,20.80
2022-12-25T17:34:02.799Z,18.65
2022-12-25T17:36:32.170Z,23.77
2022-12-25T17:39:01.342Z,19.88
2022-12-25T17:41:30.062Z,22.00
2022-12-25T17:44:00.557Z,18.08
2022-12-25T17:46:30.674Z,21.98
2022-12-25T17:49:00.771Z,19.63
2022-12-25T17:51:32.043Z,17.77
2022-12-25T17:54:05.116Z,21.55
2022-12-25T17:56:32.847Z,20.90
2022-12-25T17:59:07.056Z,23.83
2022-12-25T18:01:37.071Z,42.30
2022-12-25T18:04:06.557Z,53.55
2022-12-25T18:06:35.752Z,69.70
2022-12-25T18:09:05.734Z,66.88
2022-12-25T18:11:33.423Z,52.30
2022-12-25T18:14:05.797Z,53.35
2022-12-25T18:16:35.704Z,44.75
2022-12-25T18:19:04.405Z,36.20
2022-12-25T18:21:32.001Z,31.83
2022-12-25T18:23:59.707Z,31.38
2022-12-25T18:26:29.079Z,37.00
2022-12-25T18:28:56.614Z,23.75
2022-12-25T18:31:26.537Z,27.48
2022-12-25T18:33:54.379Z,22.23
2022-12-25T18:36:25.590Z,22.75
2022-12-25T18:38:56.705Z,24.52
2022-12-25T18:41:24.139Z,26.10
2022-12-25T18:43:55.649Z,23.52
2022-12-25T18:46:25.664Z,21.52
2022-12-25T18:48:57.759Z,26.60
2022-12-25T18:51:29.923Z,20.25
2022-12-25T18:54:02.942Z,20.38
2022-12-25T18:56:31.931Z,20.13
2022-12-25T18:59:01.414Z,24.30
2022-12-25T19:01:32.612Z,17.48
2022-12-25T19:04:05.438Z,16.83
2022-12-25T19:06:35.816Z,21.20
2022-12-25T19:09:10.284Z,22.50
2022-12-25T19:11:46.511Z,23.98
2022-12-25T19:14:14.886Z,25.85
2022-12-25T19:16:42.392Z,32.13
2022-12-25T19:19:09.740Z,29.02
2022-12-25T19:21:38.085Z,27.00
2022-12-25T19:24:05.714Z,29.35
2022-12-25T19:26:33.079Z,29.95
2022-12-25T19:29:00.973Z,25.98
2022-12-25T19:31:29.062Z,29.75
2022-12-25T19:33:56.334Z,32.42
2022-12-25T19:36:23.788Z,36.47
2022-12-25T19:38:50.986Z,36.47
2022-12-25T19:41:19.621Z,34.42
2022-12-25T19:43:48.838Z,25.45
2022-12-25T19:46:26.224Z,19.85
2022-12-25T19:48:55.643Z,13.25
2022-12-25T19:51:29.178Z,19.88
2022-12-25T19:53:56.960Z,10.23
2022-12-25T19:56:26.182Z,13.25
2022-12-25T19:58:54.029Z,15.80
2022-12-25T20:01:23.134Z,15.73
2022-12-25T20:03:51.159Z,16.55
2022-12-25T20:06:25.428Z,18.38
2022-12-25T20:08:55.675Z,23.20
2022-12-25T20:11:26.306Z,29.00
2022-12-25T20:13:54.850Z,27.35
2022-12-25T20:16:23.310Z,27.38
2022-12-25T20:18:51.151Z,29.75
2022-12-25T20:21:21.310Z,23.70
2022-12-25T20:23:50.899Z,24.08
2022-12-25T20:26:20.093Z,25.52
2022-12-25T20:28:48.518Z,22.90
2022-12-25T20:31:23.438Z,29.52
2022-12-25T20:33:51.248Z,37.67
2022-12-25T20:36:19.513Z,34.85
2022-12-25T20:38:47.859Z,34.97
2022-12-25T20:41:28.761Z,40.97
2022-12-25T20:44:02.566Z,51.38
2022-12-25T20:46:30.651Z,49.17
2022-12-25T20:48:58.109Z,50.63
2022-12-25T20:51:26.882Z,60.25
2022-12-25T20:53:55.587Z,51.22
2022-12-25T20:56:25.508Z,45.92
2022-12-25T20:59:01.867Z,46.78
2022-12-25T21:01:30.837Z,35.03
2022-12-25T21:03:59.947Z,36.47
2022-12-25T21:06:27.629Z,32.47
2022-12-25T21:08:55.696Z,35.97
2022-12-25T21:11:23.096Z,29.98
2022-12-25T21:13:50.597Z,23.98
2022-12-25T21:16:20.860Z,24.92
2022-12-25T21:18:51.027Z,23.55
2022-12-25T21:21:19.391Z,21.50
2022-12-25T21:23:47.012Z,23.40
2022-12-25T21:26:32.242Z,71.20
2022-12-25T21:29:01.329Z,89.80
2022-12-25T21:31:30.373Z,95.65
2022-12-25T21:33:58.414Z,80.22
2022-12-25T21:36:28.040Z,113.32
2022-12-25T21:39:02.127Z,131.63
2022-12-25T21:41:31.843Z,141.68
2022-12-25T21:43:59.947Z,148.52
2022-12-25T21:46:30.323Z,152.20
2022-12-25T21:48:59.403Z,139.77
2022-12-25T21:51:51.227Z,127.55
2022-12-25T21:54:21.207Z,98.97
2022-12-25T21:56:51.099Z,93.72
2022-12-25T21:59:24.022Z,73.32
2022-12-25T22:01:53.676Z,84.22
2022-12-25T22:04:24.385Z,75.35
2022-12-25T22:07:10.999Z,140.32
2022-12-25T22:09:38.589Z,103.57
2022-12-25T22:12:30.133Z,74.00
2022-12-25T22:15:07.000Z,55.80
2022-12-25T22:20:24.835Z,37.00
2022-12-25T22:22:53.359Z,30.95
2022-12-25T22:25:21.543Z,25.02
2022-12-25T22:27:49.804Z,24.65
2022-12-25T22:30:25.147Z,21.83
2022-12-25T22:32:52.628Z,19.25
2022-12-25T22:35:21.256Z,17.30
2022-12-25T22:37:50.013Z,18.17
2022-12-25T22:40:20.155Z,18.58
2022-12-25T22:42:50.340Z,16.08
2022-12-25T22:45:17.908Z,13.00
2022-12-25T22:47:47.468Z,16.45
2022-12-25T22:50:15.510Z,19.83
2022-12-25T22:52:46.179Z,18.58
2022-12-25T22:55:17.450Z,21.77
2022-12-25T22:57:45.102Z,20.33
2022-12-25T23:00:13.964Z,35.85
2022-12-25T23:02:41.499Z,35.08
2022-12-25T23:05:09.300Z,31.20
2022-12-25T23:07:36.935Z,26.88
2022-12-25T23:10:06.095Z,27.42
2022-12-25T23:12:52.005Z,22.15
2022-12-25T23:15:19.342Z,21.45
2022-12-25T23:18:05.063Z,31.70
2022-12-25T23:20:52.108Z,40.03
2022-12-25T23:23:37.661Z,37.95
2022-12-25T23:26:08.417Z,33.33
2022-12-25T23:29:00.047Z,35.60
2022-12-25T23:31:31.637Z,33.78
2022-12-25T23:33:59.886Z,33.88
2022-12-25T23:36:28.245Z,39.10
2022-12-25T23:38:55.911Z,41.13
2022-12-25T23:41:23.641Z,33.85
2022-12-25T23:43:51.484Z,24.52
2022-12-25T23:46:18.788Z,20.13
2022-12-25T23:48:46.263Z,23.90
2022-12-25T23:51:14.006Z,17.92
2022-12-25T23:53:41.296Z,19.08
2022-12-25T23:56:10.718Z,19.25
2022-12-25T23:58:38.361Z,15.18
